createdAt,value
2023-04-09T00:02:57.928Z,7.66
2023-04-09T00:08:01.640Z,7.58
2023-04-09T00:13:05.061Z,7.52
2023-04-09T00:18:08.578Z,7.45
2023-04-09T00:23:13.074Z,7.36
2023-04-09T00:28:17.024Z,7.27
2023-04-09T00:33:20.648Z,7.18
2023-04-09T00:38:24.163Z,7.12
2023-04-09T00:43:27.783Z,7.06
2023-04-09T00:48:31.603Z,7.01
2023-04-09T00:53:35.529Z,6.92
2023-04-09T00:58:41.722Z,6.84
2023-04-09T01:03:45.720Z,6.79
2023-04-09T01:08:59.899Z,6.70
2023-04-09T01:14:13.037Z,6.62
2023-04-09T01:19:32.838Z,6.55
2023-04-09T01:24:59.189Z,6.45
2023-04-09T01:30:05.509Z,6.33
2023-04-09T01:35:10.230Z,6.14
2023-04-09T01:40:13.831Z,5.96
2023-04-09T01:45:18.043Z,5.82
2023-04-09T01:50:21.374Z,5.73
2023-04-09T01:55:24.789Z,5.64
2023-04-09T02:00:38.642Z,5.59
2023-04-09T02:05:53.425Z,5.51
2023-04-09T02:10:59.296Z,5.46
2023-04-09T02:16:04.092Z,5.43
2023-04-09T02:21:08.040Z,5.44
2023-04-09T02:26:11.382Z,5.45
2023-04-09T02:31:15.001Z,5.39
2023-04-09T02:36:18.418Z,5.32
2023-04-09T02:41:22.035Z,5.31
2023-04-09T02:46:25.692Z,5.26
2023-04-09T02:51:29.166Z,5.19
2023-04-09T02:56:32.777Z,5.08
2023-04-09T03:01:36.779Z,4.98
2023-04-09T03:06:40.425Z,4.96
2023-04-09T03:11:43.844Z,4.99
2023-04-09T03:16:47.365Z,5.03
2023-04-09T03:21:51.687Z,5.07
2023-04-09T03:26:54.998Z,5.16
2023-04-09T03:31:58.628Z,5.15
2023-04-09T03:37:02.139Z,5.18
2023-04-09T03:42:05.853Z,5.24
2023-04-09T03:47:09.321Z,5.28
2023-04-09T03:52:12.884Z,5.34
2023-04-09T03:57:16.395Z,5.41
2023-04-09T04:02:19.816Z,5.44
2023-04-09T04:07:23.433Z,5.48
2023-04-09T04:12:26.839Z,5.44
2023-04-09T04:17:30.278Z,5.44
2023-04-09T04:22:35.540Z,5.54
2023-04-09T04:27:43.619Z,5.62
2023-04-09T04:32:47.161Z,5.63
2023-04-09T04:37:51.993Z,5.63
2023-04-09T04:42:55.414Z,5.63
2023-04-09T04:47:59.023Z,5.62
2023-04-09T04:53:02.654Z,5.65
2023-04-09T04:58:06.266Z,5.67
2023-04-09T05:03:09.843Z,5.80
2023-04-09T05:08:13.395Z,5.86
2023-04-09T05:13:17.115Z,5.92
2023-04-09T05:18:21.037Z,6.01
2023-04-09T05:23:24.455Z,6.11
2023-04-09T05:28:27.968Z,6.23
2023-04-09T05:33:35.694Z,6.35
2023-04-09T05:38:38.995Z,6.42
2023-04-09T05:43:43.175Z,6.50
2023-04-09T05:48:47.154Z,6.63
2023-04-09T05:53:50.741Z,6.76
2023-04-09T05:58:54.910Z,6.87
2023-04-09T06:03:58.781Z,7.00
2023-04-09T06:09:02.820Z,7.10
2023-04-09T06:14:06.175Z,7.20
2023-04-09T06:19:09.691Z,7.27
2023-04-09T06:24:13.144Z,7.39
2023-04-09T06:29:16.609Z,7.62
2023-04-09T06:34:20.335Z,7.73
2023-04-09T06:39:23.642Z,7.89
2023-04-09T06:44:27.220Z,8.04
2023-04-09T06:49:30.671Z,8.23
2023-04-09T06:54:34.190Z,8.41
2023-04-09T06:59:37.701Z,8.61
2023-04-09T07:04:41.797Z,8.85
2023-04-09T07:09:45.150Z,9.01
2023-04-09T07:14:48.553Z,9.30
2023-04-09T07:19:52.171Z,9.43
2023-04-09T07:24:55.692Z,9.47
2023-04-09T07:30:00.128Z,9.48
2023-04-09T07:35:05.317Z,9.53
2023-04-09T07:40:09.511Z,9.68
2023-04-09T07:45:12.930Z,9.95
2023-04-09T07:50:16.547Z,10.23
2023-04-09T07:55:20.570Z,10.33
2023-04-09T08:00:24.368Z,10.39
2023-04-09T08:05:28.628Z,10.47
2023-04-09T08:10:32.149Z,10.50
2023-04-09T08:15:35.556Z,10.52
2023-04-09T08:20:45.373Z,10.63
2023-04-09T08:25:48.932Z,10.67
2023-04-09T08:30:52.961Z,10.90
2023-04-09T08:35:56.273Z,11.09
2023-04-09T08:40:59.786Z,11.67
2023-04-09T08:46:03.752Z,12.05
2023-04-09T08:51:07.535Z,12.37
2023-04-09T08:56:10.847Z,12.60
2023-04-09T09:01:21.713Z,12.76
2023-04-09T09:06:29.059Z,12.96
2023-04-09T09:11:34.007Z,13.22
2023-04-09T09:16:42.881Z,13.57
2023-04-09T09:21:57.024Z,13.71
2023-04-09T09:27:01.784Z,13.81
2023-04-09T09:32:13.760Z,14.02
2023-04-09T09:37:30.729Z,14.22
2023-04-09T09:42:34.094Z,14.48
2023-04-09T09:47:37.820Z,14.77
2023-04-09T09:52:44.936Z,14.89
2023-04-09T09:57:51.744Z,14.85
2023-04-09T10:03:08.787Z,14.72
2023-04-09T10:08:13.074Z,14.92
2023-04-09T10:13:24.782Z,15.09
2023-04-09T10:18:30.189Z,15.23
2023-04-09T10:23:39.103Z,15.45
2023-04-09T10:28:43.622Z,15.59
2023-04-09T10:33:46.932Z,15.62
2023-04-09T10:38:51.336Z,15.83
2023-04-09T10:43:54.990Z,16.30
2023-04-09T10:49:22.466Z,16.54
2023-04-09T10:54:34.934Z,16.74
2023-04-09T10:59:47.863Z,17.00
2023-04-09T11:05:07.061Z,17.42
2023-04-09T11:10:10.425Z,17.64
2023-04-09T11:15:18.560Z,17.78
2023-04-09T11:20:23.906Z,17.88
2023-04-09T11:25:30.255Z,17.99
2023-04-09T11:30:34.616Z,18.28
2023-04-09T11:35:38.086Z,18.39
2023-04-09T11:40:49.503Z,18.07
2023-04-09T11:45:53.967Z,18.11
2023-04-09T11:50:58.215Z,18.07
2023-04-09T11:56:01.929Z,18.15
2023-04-09T12:01:05.854Z,17.91
2023-04-09T12:06:11.927Z,17.90
2023-04-09T12:11:16.364Z,17.99
2023-04-09T12:16:23.316Z,18.07
2023-04-09T12:21:56.143Z,18.25
2023-04-09T12:26:59.475Z,18.24
2023-04-09T12:32:02.823Z,18.17
2023-04-09T12:37:06.606Z,18.14
2023-04-09T12:42:09.922Z,18.13
2023-04-09T12:47:13.743Z,18.01
2023-04-09T12:52:18.684Z,17.93
2023-04-09T12:57:22.115Z,18.16
2023-04-09T13:02:26.137Z,18.78
2023-04-09T13:07:30.058Z,19.29
2023-04-09T13:12:33.276Z,19.60
2023-04-09T13:17:36.945Z,19.68
2023-04-09T13:22:40.607Z,20.02
2023-04-09T13:27:44.221Z,20.10
2023-04-09T13:32:47.803Z,20.32
2023-04-09T13:37:51.457Z,20.29
2023-04-09T13:42:54.872Z,20.17
2023-04-09T13:48:04.079Z,20.58
2023-04-09T13:53:07.532Z,20.53
2023-04-09T13:58:10.950Z,20.16
2023-04-09T14:03:14.777Z,19.85
2023-04-09T14:08:18.701Z,19.62
2023-04-09T14:13:21.901Z,19.77
2023-04-09T14:18:25.312Z,20.23
2023-04-09T14:23:29.034Z,21.24
2023-04-09T14:28:32.450Z,22.14
2023-04-09T14:33:36.172Z,23.65
2023-04-09T14:38:39.584Z,24.51
2023-04-09T14:43:42.891Z,24.77
2023-04-09T14:48:46.823Z,23.58
2023-04-09T14:53:50.231Z,22.96
2023-04-09T14:58:54.452Z,23.11
2023-04-09T15:03:58.210Z,24.03
2023-04-09T15:09:02.027Z,24.59
2023-04-09T15:14:05.657Z,24.65
2023-04-09T15:19:08.943Z,25.17
2023-04-09T15:24:12.348Z,25.63
2023-04-09T15:29:15.863Z,24.58
2023-04-09T15:34:19.377Z,23.99
2023-04-09T15:39:28.659Z,25.05
2023-04-09T15:44:32.264Z,25.93
2023-04-09T15:49:37.120Z,26.42
2023-04-09T15:54:40.417Z,25.82
2023-04-09T15:59:44.046Z,25.00
2023-04-09T16:04:47.529Z,24.30
2023-04-09T16:09:51.264Z,22.25
2023-04-09T16:14:55.191Z,20.55
2023-04-09T16:19:58.612Z,19.23
2023-04-09T16:25:02.118Z,18.01
2023-04-09T16:30:06.104Z,17.32
2023-04-09T16:35:09.450Z,17.20
2023-04-09T16:40:12.972Z,16.75
2023-04-09T16:45:16.571Z,16.13
2023-04-09T16:50:20.865Z,15.59
2023-04-09T16:55:24.328Z,15.08
2023-04-09T17:00:27.951Z,14.58
2023-04-09T17:05:31.695Z,14.48
2023-04-09T17:10:37.132Z,15.02
2023-04-09T17:15:40.439Z,15.31
2023-04-09T17:20:44.271Z,15.27
2023-04-09T17:25:47.880Z,14.95
2023-04-09T17:30:51.604Z,14.27
2023-04-09T17:35:55.035Z,13.70
2023-04-09T17:40:58.538Z,13.25
2023-04-09T17:46:02.071Z,12.74
2023-04-09T17:51:06.445Z,12.43
2023-04-09T17:56:15.017Z,12.15
2023-04-09T18:01:18.967Z,11.90
2023-04-09T18:06:22.356Z,11.69
2023-04-09T18:11:25.870Z,11.54
2023-04-09T18:16:29.503Z,11.34
2023-04-09T18:21:33.215Z,11.10
2023-04-09T18:26:37.037Z,10.91
2023-04-09T18:31:40.660Z,10.84
2023-04-09T18:36:44.266Z,10.70
2023-04-09T18:41:47.578Z,10.60
2023-04-09T18:46:51.429Z,10.51
2023-04-09T18:51:56.348Z,10.53
2023-04-09T18:56:59.666Z,10.48
2023-04-09T19:02:05.610Z,10.45
2023-04-09T19:07:09.362Z,10.49
2023-04-09T19:12:12.779Z,10.42
2023-04-09T19:17:20.170Z,10.27
2023-04-09T19:22:33.122Z,10.15
2023-04-09T19:27:36.632Z,10.07
2023-04-09T19:32:41.986Z,9.93
2023-04-09T19:37:45.628Z,9.88
2023-04-09T19:42:48.957Z,9.65
2023-04-09T19:47:55.078Z,9.47
2023-04-09T19:52:59.129Z,9.35
2023-04-09T19:58:03.554Z,9.22
2023-04-09T20:03:08.199Z,9.15
2023-04-09T20:08:15.154Z,9.11
2023-04-09T20:13:19.323Z,9.03
2023-04-09T20:18:22.746Z,8.92
2023-04-09T20:23:26.151Z,8.80
2023-04-09T20:28:30.184Z,8.65
2023-04-09T20:33:34.331Z,8.42
2023-04-09T20:38:37.617Z,8.29
2023-04-09T20:43:41.036Z,8.17
2023-04-09T20:48:44.748Z,8.13
2023-04-09T20:53:48.269Z,8.10
2023-04-09T20:58:52.004Z,8.01
2023-04-09T21:03:56.055Z,7.85
2023-04-09T21:08:59.936Z,7.78
2023-04-09T21:14:04.387Z,7.72
2023-04-09T21:19:07.805Z,7.49
2023-04-09T21:24:11.314Z,7.34
2023-04-09T21:29:14.725Z,7.25
2023-04-09T21:34:18.353Z,7.21
2023-04-09T21:39:21.860Z,7.14
2023-04-09T21:44:25.688Z,7.09
2023-04-09T21:49:29.202Z,7.03
2023-04-09T21:55:10.611Z,7.09
2023-04-09T22:00:16.515Z,7.14
2023-04-09T22:05:19.894Z,7.19
2023-04-09T22:10:24.020Z,7.22
2023-04-09T22:15:27.642Z,7.23
2023-04-09T22:20:30.961Z,7.21
2023-04-09T22:25:35.389Z,7.16
2023-04-09T22:30:38.595Z,7.05
2023-04-09T22:35:42.130Z,6.97
2023-04-09T22:40:48.078Z,7.07
2023-04-09T22:45:55.181Z,7.05
2023-04-09T22:50:59.001Z,7.01
2023-04-09T22:56:02.357Z,6.87
2023-04-09T23:01:06.542Z,6.79
2023-04-09T23:06:09.960Z,6.82
2023-04-09T23:11:13.887Z,6.74
2023-04-09T23:16:17.480Z,6.62
2023-04-09T23:21:21.013Z,6.50
2023-04-09T23:26:24.523Z,6.43
2023-04-09T23:31:28.065Z,6.31
2023-04-09T23:36:31.966Z,6.21
2023-04-09T23:41:35.589Z,6.04
2023-04-09T23:46:39.246Z,5.89
2023-04-09T23:51:42.822Z,5.85
2023-04-09T23:56:47.154Z,5.81
